Itirucu, Brazil
Current Conditions -  °F | °C
As of 3:00 PM on Friday 24 Oct 2014 (Local Time) from SBQV Reporting Station
Broken Clouds Broken Clouds  
Wind Chill: 79°   Ceiling: 1500
Heat Index: 81°   Visibility: 6mi
Dew Point: 64°   Wind: 9mph
Humidity: 61%   Direction: 110°ESE
Pressure: 30.06"   Gusts: NA
Location:  13.53°S, 40.15°W
Report Text: SBQV 241800Z 11008KT 9999 BKN015 26/18 Q1018
Loading
Personal Weather Stations






























Interactive Weather Map
Tropical Storm Tracking
New forecast layout! Learn more

10-Day Weather Forecast

Advertisements
Track Severe Weather on mobile